Eko 5 — SVAR7 — position and weather

sailwx.info

Track history (hours):
 
Tides and Currents Weather Stations Pressure Air Temp Water Temp Dewpoint Dewpoint Depression Visibility Wind Speed Wind Dir Waves Ship Positions

Eko 5

Last reported at 2018-May-22 11:22 UTC. Time now 2018-May-22 17:59 UTC.
Position N 37°52' E 023°36'.

Length 88 m; draft 5.5 m.

Type: Ship. MMSI: 240911000.

Date/timePositionNaut miles runAvg speedWind from/ knotsBaromVisibWave heightAir tempDewpointWater temp
2018-May-22 11:22N 37°52' E 023°36'3 8.5
2018-May-22 11:00N 37°55' E 023°36'3 6.9
2018-May-22 10:30N 37°57' E 023°33'4 8.0
2018-May-22 10:00N 38°01' E 023°32'0 0.8
2018-May-22 09:28N 38°01' E 023°32'0 0.7
2018-May-22 09:00N 38°01' E 023°32'1 1.8
2018-May-22 08:29N 38°02' E 023°31'0 0.0
2018-May-22 07:59N 38°02' E 023°31'0 0.0
2018-May-22 07:29N 38°02' E 023°31'0 0.0
2018-May-22 06:59N 38°02' E 023°31'0 0.0
2018-May-22 06:29N 38°02' E 023°31'0 0.0
2018-May-22 05:59N 38°02' E 023°31'0 0.0
2018-May-22 05:29N 38°02' E 023°31'0 0.0
2018-May-22 04:59N 38°02' E 023°31'0 0.0
2018-May-22 04:29N 38°02' E 023°31'0 0.0
2018-May-22 03:59N 38°02' E 023°31'0 0.0
2018-May-22 03:29N 38°02' E 023°31'0 0.0
2018-May-22 02:59N 38°02' E 023°31'0 0.0
2018-May-22 02:29N 38°02' E 023°31'0 0.0
2018-May-22 01:59N 38°02' E 023°31'0 0.0
2018-May-22 01:29N 38°02' E 023°31'0 0.0
2018-May-22 00:59N 38°02' E 023°31'0 0.0
2018-May-22 00:29N 38°02' E 023°31'0 0.0
2018-May-21 23:59N 38°02' E 023°31'0 0.0
2018-May-21 23:29N 38°02' E 023°31'0 0.0
2018-May-21 22:59N 38°02' E 023°31'0 0.0
2018-May-21 22:29N 38°02' E 023°31'0 0.0
2018-May-21 21:59N 38°02' E 023°31'0 0.0
2018-May-21 21:29N 38°02' E 023°31'0 0.0
2018-May-21 20:59N 38°02' E 023°31'0 0.0
2018-May-21 20:29N 38°02' E 023°31'0 0.0
2018-May-21 19:59N 38°02' E 023°31'0 0.0
2018-May-21 19:29N 38°02' E 023°31'0 0.0
2018-May-21 18:59N 38°02' E 023°31'0 0.0
2018-May-21 18:29N 38°02' E 023°31'0 0.0
2018-May-21 17:59N 38°02' E 023°31'0 0.0
2018-May-21 17:29N 38°02' E 023°31'0 0.0
2018-May-21 16:59N 38°02' E 023°31'0 0.0
2018-May-21 16:29N 38°02' E 023°31'0 0.0
2018-May-21 15:59N 38°02' E 023°31'0 0.0
2018-May-21 15:29N 38°02' E 023°31'0 0.0
2018-May-21 14:59N 38°02' E 023°31'0 0.0
2018-May-21 14:29N 38°02' E 023°31'0 0.1
2018-May-21 14:00N 38°02' E 023°31'1 2.0
2018-May-21 13:28N 38°01' E 023°32'0 0.0
2018-May-21 12:58N 38°01' E 023°32'0 0.0
2018-May-21 12:28N 38°01' E 023°32'0 0.1
2018-May-21 11:58N 38°01' E 023°32'0 0.0
2018-May-21 11:28N 38°01' E 023°32'0 0.0
2018-May-21 10:58N 38°01' E 023°32'0 0.0
2018-May-21 10:28N 38°01' E 023°32'0 0.0
2018-May-21 09:58N 38°01' E 023°32'0 0.0
2018-May-21 09:28N 38°01' E 023°32'0 0.0
2018-May-21 08:58N 38°01' E 023°32'0 0.0
2018-May-21 08:28N 38°01' E 023°32'0 0.0
2018-May-21 07:58N 38°01' E 023°32'0 0.0
2018-May-21 07:28N 38°01' E 023°32'0 0.0
2018-May-21 06:58N 38°01' E 023°32'0 0.0
2018-May-21 06:28N 38°01' E 023°32'0 0.0
2018-May-21 05:58N 38°01' E 023°32'0 0.0
2018-May-21 05:28N 38°01' E 023°32'0 0.0
2018-May-21 04:58N 38°01' E 023°32'0 0.0
2018-May-21 04:28N 38°01' E 023°32'0 0.0
2018-May-21 03:58N 38°01' E 023°32'0 0.0
2018-May-21 03:28N 38°01' E 023°32'0 0.0
2018-May-21 02:58N 38°01' E 023°32'0 0.0
2018-May-21 02:28N 38°01' E 023°32'0 0.0
2018-May-21 01:58N 38°01' E 023°32'0 0.0
2018-May-21 01:28N 38°01' E 023°32'0 0.0
2018-May-21 00:58N 38°01' E 023°32'0 0.0
2018-May-21 00:28N 38°01' E 023°32'0 0.0
2018-May-20 23:58N 38°01' E 023°32'0 0.0
2018-May-20 23:28N 38°01' E 023°32'0 0.0
2018-May-20 22:58N 38°01' E 023°32'0 0.0
2018-May-20 22:28N 38°01' E 023°32'0 0.0
2018-May-20 21:58N 38°01' E 023°32'0 0.0
2018-May-20 21:28N 38°01' E 023°32'0 0.0
2018-May-20 20:58N 38°01' E 023°32'0 0.1
2018-May-20 20:28N 38°01' E 023°32'0 0.0
2018-May-20 19:58N 38°01' E 023°32'0 0.0
2018-May-20 19:28N 38°01' E 023°32'0 0.0
2018-May-20 18:58N 38°01' E 023°32'0 0.0
2018-May-20 18:28N 38°01' E 023°32'0 0.0
2018-May-20 17:58N 38°01' E 023°32'0 0.0
2018-May-20 17:28N 38°01' E 023°32'0 0.0
2018-May-20 16:58N 38°01' E 023°32'0 0.1
2018-May-20 16:28N 38°01' E 023°32'0 0.1
2018-May-20 15:58N 38°01' E 023°32'0 0.1
2018-May-20 15:28N 38°01' E 023°32'0 0.2
2018-May-20 14:58N 38°01' E 023°32'0 0.0
2018-May-20 14:28N 38°01' E 023°32'0 0.2
2018-May-20 13:58N 38°01' E 023°32'0 0.0
2018-May-20 13:28N 38°01' E 023°32'0 0.0
2018-May-20 12:58N 38°01' E 023°32'0 0.0
2018-May-20 12:28N 38°01' E 023°32'0 0.0
2018-May-20 11:58N 38°01' E 023°32'0 0.0
2018-May-20 11:28N 38°01' E 023°32'0 0.0
2018-May-20 10:58N 38°01' E 023°32'0 0.0
2018-May-20 10:28N 38°01' E 023°32'0 0.0
2018-May-20 09:58N 38°01' E 023°32'0 0.0
2018-May-20 09:28N 38°01' E 023°32'0 0.1
2018-May-20 08:58N 38°01' E 023°32'0 0.0
2018-May-20 08:28N 38°01' E 023°32'0 0.0
2018-May-20 07:58N 38°01' E 023°32'0 0.0
2018-May-20 07:28N 38°01' E 023°32'0 0.0
2018-May-20 06:58N 38°01' E 023°32'0 0.1
2018-May-20 06:28N 38°01' E 023°32'0 0.1
2018-May-20 05:58N 38°01' E 023°32'0 0.0
2018-May-20 05:28N 38°01' E 023°32'0 0.1
2018-May-20 04:58N 38°01' E 023°32'0 0.0
2018-May-20 04:28N 38°01' E 023°32'0 0.0
2018-May-20 03:58N 38°01' E 023°32'0 0.1
2018-May-20 03:28N 38°01' E 023°32'0 0.1
2018-May-20 02:58N 38°01' E 023°32'0 0.0
2018-May-20 02:28N 38°01' E 023°32'0 0.0
2018-May-20 01:58N 38°01' E 023°32'0 0.1
2018-May-20 01:28N 38°01' E 023°32'0 0.0
2018-May-20 00:58N 38°01' E 023°32'0 0.0
2018-May-20 00:28N 38°01' E 023°32'0 0.0
2018-May-19 23:58N 38°01' E 023°32'0 0.0
2018-May-19 23:28N 38°01' E 023°32'0 0.0
2018-May-19 22:58N 38°01' E 023°32'0 0.1
2018-May-19 22:28N 38°01' E 023°32'0 0.1
2018-May-19 21:58N 38°01' E 023°32'0 0.1
2018-May-19 21:28N 38°01' E 023°32'0 0.1
2018-May-19 20:58N 38°01' E 023°32'0 0.0
2018-May-19 20:28N 38°01' E 023°32'0 0.0
2018-May-19 19:58N 38°01' E 023°32'0 0.0
2018-May-19 19:28N 38°01' E 023°32'0 0.0
2018-May-19 18:58N 38°01' E 023°32'0 0.1
2018-May-19 18:28N 38°01' E 023°32'0 0.0
2018-May-19 17:58N 38°01' E 023°32'0 0.0
2018-May-19 17:28N 38°01' E 023°32'0 0.0
2018-May-19 16:58N 38°01' E 023°32'0 0.0
2018-May-19 16:28N 38°01' E 023°32'0 0.0
2018-May-19 15:58N 38°01' E 023°32'0 0.0
2018-May-19 15:28N 38°01' E 023°32'0 0.0
2018-May-19 14:58N 38°01' E 023°32'0 0.0
2018-May-19 14:28N 38°01' E 023°32'0 0.0
2018-May-19 13:58N 38°01' E 023°32'0 0.0
2018-May-19 13:28N 38°01' E 023°32'0 0.0
2018-May-19 12:58N 38°01' E 023°32'0 0.0
2018-May-19 12:28N 38°01' E 023°32'0 0.0
2018-May-19 11:58N 38°01' E 023°32'0 0.0
2018-May-19 11:28N 38°01' E 023°32'0 0.0
2018-May-19 10:58N 38°01' E 023°32'0 0.0
2018-May-19 10:28N 38°01' E 023°32'0 0.0
2018-May-19 09:58N 38°01' E 023°32'0 0.0
2018-May-19 09:28N 38°01' E 023°32'0 0.0
2018-May-19 08:58N 38°01' E 023°32'0 0.0
2018-May-19 08:28N 38°01' E 023°32'0 0.0
2018-May-19 07:58N 38°01' E 023°32'0 0.1
2018-May-19 07:28N 38°01' E 023°32'0 0.0
2018-May-19 06:58N 38°01' E 023°32'0 0.0
2018-May-19 06:28N 38°01' E 023°32'0 0.0
2018-May-19 05:58N 38°01' E 023°32'0 0.0
2018-May-19 05:28N 38°01' E 023°32'0 0.0
2018-May-19 04:58N 38°01' E 023°32'0 0.0
2018-May-19 04:28N 38°01' E 023°32'0 0.0
2018-May-19 03:58N 38°01' E 023°32'0 0.0
2018-May-19 03:28N 38°01' E 023°32'0 0.0
2018-May-19 02:58N 38°01' E 023°32'0 0.0
2018-May-19 02:28N 38°01' E 023°32'0 0.0
2018-May-19 01:58N 38°01' E 023°32'0 0.1
2018-May-19 01:28N 38°01' E 023°32'0 0.0
2018-May-19 00:58N 38°01' E 023°32'0 0.0
2018-May-19 00:28N 38°01' E 023°32'0 0.1
2018-May-18 23:58N 38°01' E 023°32'0 0.1
2018-May-18 23:28N 38°01' E 023°32'0 0.0
2018-May-18 22:58N 38°01' E 023°32'0 0.0
2018-May-18 22:28N 38°01' E 023°32'0 0.0
2018-May-18 21:58N 38°01' E 023°32'0 0.0
2018-May-18 21:28N 38°01' E 023°32'0 0.0
2018-May-18 20:58N 38°01' E 023°32'0 0.0
2018-May-18 20:28N 38°01' E 023°32'0 0.0
2018-May-18 19:58N 38°01' E 023°32'0 0.1
2018-May-18 19:28N 38°01' E 023°32'0 0.0
2018-May-18 18:58N 38°01' E 023°32'0 0.1
2018-May-18 18:28N 38°01' E 023°32'0 0.0
2018-May-18 17:58N 38°01' E 023°32'0 0.1
2018-May-18 17:28N 38°01' E 023°32'0 0.0
2018-May-18 16:58N 38°01' E 023°32'0 0.0
2018-May-18 16:28N 38°01' E 023°32'0 0.0
2018-May-18 15:58N 38°01' E 023°32'0 0.0
2018-May-18 15:28N 38°01' E 023°32'0 0.0
2018-May-18 14:58N 38°01' E 023°32'0 0.0
2018-May-18 14:28N 38°01' E 023°32'0 0.0
2018-May-18 13:58N 38°01' E 023°32'0 0.0
2018-May-18 13:28N 38°01' E 023°32'0 0.0
2018-May-18 12:55N 38°01' E 023°32'0 0.1
2018-May-18 12:28N 38°01' E 023°32'0 0.1
2018-May-18 11:58N 38°01' E 023°32'0 0.0
2018-May-18 11:28N 38°01' E 023°32'0 0.1
2018-May-18 10:58N 38°01' E 023°32'0 0.0
2018-May-18 10:28N 38°01' E 023°32'0 0.0
2018-May-18 09:58N 38°01' E 023°32'0 0.0
2018-May-18 09:28N 38°01' E 023°32'0 0.1
2018-May-18 08:58N 38°01' E 023°32'0 0.1
2018-May-18 08:28N 38°01' E 023°32'0 0.0
2018-May-18 07:58N 38°01' E 023°32'0 0.0
2018-May-18 07:28N 38°01' E 023°32'0 0.1
2018-May-18 06:58N 38°01' E 023°32'0 0.1
2018-May-18 06:28N 38°01' E 023°32'0 0.0
2018-May-18 05:58N 38°01' E 023°32'0 0.2
2018-May-18 05:28N 38°01' E 023°32'0 0.2
2018-May-18 04:58N 38°01' E 023°32'0 0.1
2018-May-18 04:28N 38°01' E 023°32'0 0.2
2018-May-18 03:58N 38°01' E 023°32'0 0.0
2018-May-18 03:28N 38°01' E 023°32'0 0.0
2018-May-18 02:58N 38°01' E 023°32'0 0.0
2018-May-18 02:28N 38°01' E 023°32'0 0.0
2018-May-18 01:58N 38°01' E 023°32'0 0.0
2018-May-18 01:28N 38°01' E 023°32'0 0.0
2018-May-18 00:58N 38°01' E 023°32'0 0.1
2018-May-18 00:28N 38°01' E 023°32'0 0.0
2018-May-17 23:58N 38°01' E 023°32'0 0.1
2018-May-17 23:28N 38°01' E 023°32'0 0.0
2018-May-17 22:58N 38°01' E 023°32'0 0.0
2018-May-17 22:28N 38°01' E 023°32'0 0.0
2018-May-17 21:58N 38°01' E 023°32'0 0.0
2018-May-17 21:28N 38°01' E 023°32'0 0.0
2018-May-17 20:58N 38°01' E 023°32'0 0.0
2018-May-17 20:28N 38°01' E 023°32'0 0.0
2018-May-17 19:58N 38°01' E 023°32'0 0.1
2018-May-17 19:28N 38°01' E 023°32'0 0.1
2018-May-17 18:58N 38°01' E 023°32'0 0.1
2018-May-17 18:28N 38°01' E 023°32'0 0.0
2018-May-17 17:58N 38°01' E 023°32'0 0.0
2018-May-17 17:28N 38°01' E 023°32'0 0.1
2018-May-17 16:58N 38°01' E 023°32'0 0.0
2018-May-17 16:28N 38°01' E 023°32'0 0.1
2018-May-17 15:58N 38°01' E 023°32'0 0.0
2018-May-17 15:28N 38°01' E 023°32'0 0.0
2018-May-17 14:58N 38°01' E 023°32'0 0.0
2018-May-17 14:25N 38°01' E 023°32'0 0.0
2018-May-17 13:58N 38°01' E 023°32'0 0.0
2018-May-17 13:28N 38°01' E 023°32'0 0.0
2018-May-17 12:58N 38°01' E 023°32'0 0.0
2018-May-17 12:28N 38°01' E 023°32'0 0.0
2018-May-17 11:58N 38°01' E 023°32'0 0.0
2018-May-17 11:28N 38°01' E 023°32'0 0.0
2018-May-17 10:58N 38°01' E 023°32'0 0.1
2018-May-17 10:28N 38°01' E 023°32'0 0.0
2018-May-17 09:58N 38°01' E 023°32'0 0.0
2018-May-17 09:28N 38°01' E 023°32'0 0.0
2018-May-17 08:58N 38°01' E 023°32'0 0.0
2018-May-17 08:28N 38°01' E 023°32'0 0.0
2018-May-17 07:58N 38°01' E 023°32'0 0.0
2018-May-17 07:28N 38°01' E 023°32'0 0.0
2018-May-17 06:58N 38°01' E 023°32'0 0.0
2018-May-17 06:28N 38°01' E 023°32'0 0.0
2018-May-17 05:58N 38°01' E 023°32'0 0.1
2018-May-17 05:28N 38°01' E 023°32'0 0.0
2018-May-17 04:58N 38°01' E 023°32'0 0.1
2018-May-17 04:28N 38°01' E 023°32'0 0.1
2018-May-17 03:58N 38°01' E 023°32'0 0.0
2018-May-17 03:28N 38°01' E 023°32'0 0.0
2018-May-17 02:58N 38°01' E 023°32'0 0.0
2018-May-17 02:28N 38°01' E 023°32'0 0.1
2018-May-17 01:58N 38°01' E 023°32'0 0.1
2018-May-17 01:28N 38°01' E 023°32'0 0.0
2018-May-17 00:58N 38°01' E 023°32'0 0.1
2018-May-17 00:28N 38°01' E 023°32'0 0.0
2018-May-16 23:58N 38°01' E 023°32'0 0.0
2018-May-16 23:28N 38°01' E 023°32'0 0.0
2018-May-16 22:59N 38°01' E 023°32'0 0.0
2018-May-16 22:28N 38°01' E 023°32'0 0.0
2018-May-16 21:58N 38°01' E 023°32'0 0.0
2018-May-16 21:28N 38°01' E 023°32'0 0.1
2018-May-16 20:58N 38°01' E 023°32'0 0.1
2018-May-16 20:28N 38°01' E 023°32'0 0.1
2018-May-16 19:58N 38°01' E 023°32'0 0.0
2018-May-16 19:28N 38°01' E 023°32'0 0.0
2018-May-16 18:58N 38°01' E 023°32'0 0.0
2018-May-16 18:28N 38°01' E 023°32'0 0.0
2018-May-16 17:58N 38°01' E 023°32'0 0.0
2018-May-16 17:28N 38°01' E 023°32'0 0.0
2018-May-16 16:58N 38°01' E 023°32'0 0.0
2018-May-16 16:28N 38°01' E 023°32'0 0.0
2018-May-16 15:58N 38°01' E 023°32'0 0.0
2018-May-16 15:28N 38°01' E 023°32'0 0.0
2018-May-16 14:58N 38°01' E 023°32'0 0.0
2018-May-16 14:28N 38°01' E 023°32'0 0.0
2018-May-16 13:58N 38°01' E 023°32'0 0.0
2018-May-16 13:28N 38°01' E 023°32'0 0.0
2018-May-16 12:58N 38°01' E 023°32'0 0.0
2018-May-16 12:28N 38°01' E 023°32'0 0.0
2018-May-16 11:58N 38°01' E 023°32'0 0.0
2018-May-16 11:28N 38°01' E 023°32'0 0.0
2018-May-16 10:58N 38°01' E 023°32'0 0.0
2018-May-16 10:28N 38°01' E 023°32'0 0.0
2018-May-16 09:58N 38°01' E 023°32'0 0.0
2018-May-16 09:28N 38°01' E 023°32'0 0.0
2018-May-16 08:58N 38°01' E 023°32'0 0.0
2018-May-16 08:28N 38°01' E 023°32'0 0.0
2018-May-16 07:58N 38°01' E 023°32'0 0.0
2018-May-16 07:28N 38°01' E 023°32'0 0.0
2018-May-16 06:52N 38°01' E 023°32'0 0.0
2018-May-16 06:28N 38°01' E 023°32'0 0.0
2018-May-16 05:58N 38°01' E 023°32'0 0.0
2018-May-16 05:28N 38°01' E 023°32'0 0.1
2018-May-16 04:58N 38°01' E 023°32'0 0.0
2018-May-16 04:28N 38°01' E 023°32'0 0.0
2018-May-16 03:58N 38°01' E 023°32'0 0.0
2018-May-16 03:28N 38°01' E 023°32'0 0.0
2018-May-16 02:58N 38°01' E 023°32'0 0.0
2018-May-16 02:28N 38°01' E 023°32'0 0.0
2018-May-16 01:58N 38°01' E 023°32'0 0.0
2018-May-16 01:28N 38°01' E 023°32'0 0.1
2018-May-16 00:58N 38°01' E 023°32'0 0.1
2018-May-16 00:28N 38°01' E 023°32'0 0.1
2018-May-15 23:58N 38°01' E 023°32'0 0.1
2018-May-15 23:28N 38°01' E 023°32'0 0.0
2018-May-15 22:58N 38°01' E 023°32'0 0.0
2018-May-15 22:28N 38°01' E 023°32'0 0.1
2018-May-15 21:58N 38°01' E 023°32'0 0.1
2018-May-15 21:28N 38°01' E 023°32'0 0.0
2018-May-15 20:58N 38°01' E 023°32'0 0.0
2018-May-15 20:28N 38°01' E 023°32'0 0.0
2018-May-15 19:58N 38°01' E 023°32'0 0.0
2018-May-15 19:28N 38°01' E 023°32'0 0.0
2018-May-15 18:58N 38°01' E 023°32'0 0.0
2018-May-15 18:28N 38°01' E 023°32'0 0.0
2018-May-15 17:58N 38°01' E 023°32'0 0.0
2018-May-15 17:28N 38°01' E 023°32'0 0.0
2018-May-15 16:58N 38°01' E 023°32'0 0.0
2018-May-15 16:28N 38°01' E 023°32'0 0.1
2018-May-15 15:58N 38°01' E 023°32'0 0.0
2018-May-15 15:28N 38°01' E 023°32'0 0.0
2018-May-15 14:58N 38°01' E 023°32'0 0.0
2018-May-15 14:28N 38°01' E 023°32'0 0.0
2018-May-15 13:58N 38°01' E 023°32'0 0.0
2018-May-15 13:28N 38°01' E 023°32'0 0.0
2018-May-15 12:58N 38°01' E 023°32'0 0.0
2018-May-15 12:28N 38°01' E 023°32'0 0.0
2018-May-15 11:58N 38°01' E 023°32'0 0.0
2018-May-15 11:28N 38°01' E 023°32'0 0.0
2018-May-15 10:58N 38°01' E 023°32'0 0.0
2018-May-15 10:28N 38°01' E 023°32'0 0.0
2018-May-15 09:58N 38°01' E 023°32'0 0.0
2018-May-15 09:28N 38°01' E 023°32'0 0.0
2018-May-15 08:58N 38°01' E 023°32'0 0.0
2018-May-15 08:28N 38°01' E 023°32'0 0.0
2018-May-15 07:58N 38°01' E 023°32'0 0.1
2018-May-15 07:28N 38°01' E 023°32'0 0.0
2018-May-15 06:58N 38°01' E 023°32'0 0.1
2018-May-15 06:28N 38°01' E 023°32'0 0.0
2018-May-15 05:58N 38°01' E 023°32'0 0.0
2018-May-15 05:28N 38°01' E 023°32'0 0.0
2018-May-15 04:58N 38°01' E 023°32'0 0.0
2018-May-15 04:28N 38°01' E 023°32'0 0.0
2018-May-15 03:58N 38°01' E 023°32'0 0.0
2018-May-15 03:28N 38°01' E 023°32'0 0.0
2018-May-15 02:58N 38°01' E 023°32'0 0.0
2018-May-15 02:28N 38°01' E 023°32'0 0.0
2018-May-15 01:58N 38°01' E 023°32'0 0.0
2018-May-15 01:28N 38°01' E 023°32'0 0.0
2018-May-15 00:58N 38°01' E 023°32'0 0.0
2018-May-15 00:28N 38°01' E 023°32'0 0.0
2018-May-14 23:58N 38°01' E 023°32'0 0.0
2018-May-14 23:28N 38°01' E 023°32'0 0.0
2018-May-14 22:58N 38°01' E 023°32'0 0.1
2018-May-14 22:28N 38°01' E 023°32'0 0.1
2018-May-14 21:58N 38°01' E 023°32'0 0.0
2018-May-14 21:28N 38°01' E 023°32'0 0.1
2018-May-14 20:58N 38°01' E 023°32'0 0.0
2018-May-14 20:28N 38°01' E 023°32'0 0.0
2018-May-14 19:58N 38°01' E 023°32'0 0.0
2018-May-14 19:28N 38°01' E 023°32'0 0.0
2018-May-14 18:58N 38°01' E 023°32'0 0.0
2018-May-14 18:28N 38°01' E 023°32'0 0.0
2018-May-14 17:58N 38°01' E 023°32'0 0.1
2018-May-14 17:28N 38°01' E 023°32'0 0.0
2018-May-14 16:58N 38°01' E 023°32'0 0.1
2018-May-14 16:28N 38°01' E 023°32'0 0.0
2018-May-14 15:58N 38°01' E 023°32'0 0.0
2018-May-14 15:28N 38°01' E 023°32'0 0.0
2018-May-14 14:58N 38°01' E 023°32'0 0.0
2018-May-14 14:28N 38°01' E 023°32'0 0.0
2018-May-14 13:58N 38°01' E 023°32'0 0.0
2018-May-14 13:25N 38°01' E 023°32'0 0.0
2018-May-14 12:58N 38°01' E 023°32'0 0.1
2018-May-14 12:28N 38°01' E 023°32'0 0.0
2018-May-14 11:55N 38°01' E 023°32'0 0.0
2018-May-14 11:28N 38°01' E 023°32'0 0.0
2018-May-14 10:58N 38°01' E 023°32'0 0.0
2018-May-14 10:28N 38°01' E 023°32'0 0.0
2018-May-14 09:58N 38°01' E 023°32'0 0.0
2018-May-14 09:28N 38°01' E 023°32'0 0.0
2018-May-14 08:58N 38°01' E 023°32'0 0.0
2018-May-14 08:28N 38°01' E 023°32'0 0.0
2018-May-14 07:58N 38°01' E 023°32'0 0.0
2018-May-14 07:28N 38°01' E 023°32'0 0.0
2018-May-14 06:58N 38°01' E 023°32'0 0.2
2018-May-14 06:28N 38°01' E 023°32'0 0.1
2018-May-14 05:58N 38°01' E 023°32'0 0.0
2018-May-14 05:22N 38°01' E 023°32'0 0.1
2018-May-14 04:58N 38°01' E 023°32'0 0.0
2018-May-14 04:28N 38°01' E 023°32'0 0.0
2018-May-14 03:58N 38°01' E 023°32'0 0.0
2018-May-14 03:28N 38°01' E 023°32'0 0.0
2018-May-14 02:58N 38°01' E 023°32'0 0.0
2018-May-14 02:28N 38°01' E 023°32'0 0.0
2018-May-14 01:58N 38°01' E 023°32'0 0.0
2018-May-14 01:28N 38°01' E 023°32'0 0.0
2018-May-14 00:58N 38°01' E 023°32'0 0.0
2018-May-14 00:28N 38°01' E 023°32'0 0.0
2018-May-13 23:58N 38°01' E 023°32'0 0.0
2018-May-13 23:28N 38°01' E 023°32'0 0.0
2018-May-13 22:58N 38°01' E 023°32'0 0.0
2018-May-13 22:28N 38°01' E 023°32'0 0.0
2018-May-13 21:58N 38°01' E 023°32'0 0.0
2018-May-13 21:28N 38°01' E 023°32'0 0.0
2018-May-13 20:58N 38°01' E 023°32'0 0.0
2018-May-13 20:28N 38°01' E 023°32'0 0.1
2018-May-13 19:58N 38°01' E 023°32'0 0.0
2018-May-13 19:28N 38°01' E 023°32'0 0.0
2018-May-13 18:58N 38°01' E 023°32'0 0.0
2018-May-13 18:28N 38°01' E 023°32'0 0.0
2018-May-13 17:58N 38°01' E 023°32'0 0.0
2018-May-13 17:28N 38°01' E 023°32'0 0.0
2018-May-13 16:58N 38°01' E 023°32'0 0.0
2018-May-13 16:28N 38°01' E 023°32'0 0.0
2018-May-13 15:58N 38°01' E 023°32'0 0.0
2018-May-13 15:28N 38°01' E 023°32'0 0.0
2018-May-13 14:58N 38°01' E 023°32'0 0.0
2018-May-13 14:28N 38°01' E 023°32'0 0.0
2018-May-13 13:58N 38°01' E 023°32'0 0.0
2018-May-13 13:28N 38°01' E 023°32'0 0.0
2018-May-13 12:58N 38°01' E 023°32'0 0.0
2018-May-13 12:28N 38°01' E 023°32'0 0.0
2018-May-13 11:58N 38°01' E 023°32'0 0.0
2018-May-13 11:28N 38°01' E 023°32'0 0.0
2018-May-13 10:58N 38°01' E 023°32'0 0.0
2018-May-13 10:28N 38°01' E 023°32'0 0.0
2018-May-13 09:58N 38°01' E 023°32'0 0.0
2018-May-13 09:28N 38°01' E 023°32'0 0.0
2018-May-13 08:58N 38°01' E 023°32'0 0.1
2018-May-13 08:28N 38°01' E 023°32'0 0.0
2018-May-13 07:58N 38°01' E 023°32'0 0.1
2018-May-13 07:28N 38°01' E 023°32'0 0.0
2018-May-13 06:58N 38°01' E 023°32'0 0.1
2018-May-13 06:28N 38°01' E 023°32'0 0.1
2018-May-13 05:58N 38°01' E 023°32'0 0.0
2018-May-13 05:28N 38°01' E 023°32'0 0.0
2018-May-13 04:58N 38°01' E 023°32'0 0.0
2018-May-13 04:28N 38°01' E 023°32'0 0.0
2018-May-13 03:58N 38°01' E 023°32'0 0.0
2018-May-13 03:28N 38°01' E 023°32'0 0.0
2018-May-13 02:58N 38°01' E 023°32'0 0.0
2018-May-13 02:28N 38°01' E 023°32'0 0.0
2018-May-13 01:58N 38°01' E 023°32'0 0.0
2018-May-13 01:28N 38°01' E 023°32'0 0.0
2018-May-13 00:58N 38°01' E 023°32'0 0.0
2018-May-13 00:28N 38°01' E 023°32'0 0.0
2018-May-12 23:58N 38°01' E 023°32'0 0.0
2018-May-12 23:28N 38°01' E 023°32'0 0.0
2018-May-12 22:58N 38°01' E 023°32'0 0.0
2018-May-12 22:28N 38°01' E 023°32'0 0.1
2018-May-12 21:58N 38°01' E 023°32'0 0.1
2018-May-12 21:28N 38°01' E 023°32'0 0.0
2018-May-12 20:58N 38°01' E 023°32'0 0.0
2018-May-12 20:28N 38°01' E 023°32'0 0.1
2018-May-12 19:58N 38°01' E 023°32'0 0.0
2018-May-12 19:28N 38°01' E 023°32'0 0.1
2018-May-12 18:58N 38°01' E 023°32'0 0.0
2018-May-12 18:28N 38°01' E 023°32'0 0.0
2018-May-12 17:58N 38°01' E 023°32'0 0.0
2018-May-12 17:28N 38°01' E 023°32'0 0.0
2018-May-12 16:58N 38°01' E 023°32'0 0.0
2018-May-12 16:28N 38°01' E 023°32'0 0.0
2018-May-12 15:58N 38°01' E 023°32'0 0.0
2018-May-12 15:28N 38°01' E 023°32'0 0.0
2018-May-12 14:58N 38°01' E 023°32'0 0.0
2018-May-12 14:28N 38°01' E 023°32'0 0.0
2018-May-12 13:58N 38°01' E 023°32'0 0.0
2018-May-12 13:28N 38°01' E 023°32'0 0.0
2018-May-12 12:58N 38°01' E 023°32'0 0.0
2018-May-12 12:28N 38°01' E 023°32'0 0.0
2018-May-12 11:58N 38°01' E 023°32'0 0.1
2018-May-12 11:28N 38°01' E 023°32'  
Track history (hours):
 
Tides and Currents Weather Stations Pressure Air Temp Water Temp Dewpoint Dewpoint Depression Visibility Wind Speed Wind Dir Waves Ship Positions

Eko 5

Last reported at 2018-May-22 11:22 UTC. Time now 2018-May-22 17:59 UTC.
Position N 37°52' E 023°36'.

Length 88 m; draft 5.5 m.

Type: Ship. MMSI: 240911000.

Date/timePositionNaut miles runAvg speedWind from/ knotsBaromVisibWave heightAir tempDewpointWater temp
2018-May-22 11:22N 37°52' E 023°36'3 8.5
2018-May-22 11:00N 37°55' E 023°36'3 6.9
2018-May-22 10:30N 37°57' E 023°33'4 8.0
2018-May-22 10:00N 38°01' E 023°32'0 0.8
2018-May-22 09:28N 38°01' E 023°32'0 0.7
2018-May-22 09:00N 38°01' E 023°32'1 1.8
2018-May-22 08:29N 38°02' E 023°31'0 0.0
2018-May-22 07:59N 38°02' E 023°31'0 0.0
2018-May-22 07:29N 38°02' E 023°31'0 0.0
2018-May-22 06:59N 38°02' E 023°31'0 0.0
2018-May-22 06:29N 38°02' E 023°31'0 0.0
2018-May-22 05:59N 38°02' E 023°31'0 0.0
2018-May-22 05:29N 38°02' E 023°31'0 0.0
2018-May-22 04:59N 38°02' E 023°31'0 0.0
2018-May-22 04:29N 38°02' E 023°31'0 0.0
2018-May-22 03:59N 38°02' E 023°31'0 0.0
2018-May-22 03:29N 38°02' E 023°31'0 0.0
2018-May-22 02:59N 38°02' E 023°31'0 0.0
2018-May-22 02:29N 38°02' E 023°31'0 0.0
2018-May-22 01:59N 38°02' E 023°31'0 0.0
2018-May-22 01:29N 38°02' E 023°31'0 0.0
2018-May-22 00:59N 38°02' E 023°31'0 0.0
2018-May-22 00:29N 38°02' E 023°31'0 0.0
2018-May-21 23:59N 38°02' E 023°31'0 0.0
2018-May-21 23:29N 38°02' E 023°31'0 0.0
2018-May-21 22:59N 38°02' E 023°31'0 0.0
2018-May-21 22:29N 38°02' E 023°31'0 0.0
2018-May-21 21:59N 38°02' E 023°31'0 0.0
2018-May-21 21:29N 38°02' E 023°31'0 0.0
2018-May-21 20:59N 38°02' E 023°31'0 0.0
2018-May-21 20:29N 38°02' E 023°31'0 0.0
2018-May-21 19:59N 38°02' E 023°31'0 0.0
2018-May-21 19:29N 38°02' E 023°31'0 0.0
2018-May-21 18:59N 38°02' E 023°31'0 0.0
2018-May-21 18:29N 38°02' E 023°31'0 0.0
2018-May-21 17:59N 38°02' E 023°31'0 0.0
2018-May-21 17:29N 38°02' E 023°31'0 0.0
2018-May-21 16:59N 38°02' E 023°31'0 0.0
2018-May-21 16:29N 38°02' E 023°31'0 0.0
2018-May-21 15:59N 38°02' E 023°31'0 0.0
2018-May-21 15:29N 38°02' E 023°31'0 0.0
2018-May-21 14:59N 38°02' E 023°31'0 0.0
2018-May-21 14:29N 38°02' E 023°31'0 0.1
2018-May-21 14:00N 38°02' E 023°31'1 2.0
2018-May-21 13:28N 38°01' E 023°32'0 0.0
2018-May-21 12:58N 38°01' E 023°32'0 0.0
2018-May-21 12:28N 38°01' E 023°32'0 0.1
2018-May-21 11:58N 38°01' E 023°32'0 0.0
2018-May-21 11:28N 38°01' E 023°32'0 0.0
2018-May-21 10:58N 38°01' E 023°32'0 0.0
2018-May-21 10:28N 38°01' E 023°32'0 0.0
2018-May-21 09:58N 38°01' E 023°32'0 0.0
2018-May-21 09:28N 38°01' E 023°32'0 0.0
2018-May-21 08:58N 38°01' E 023°32'0 0.0
2018-May-21 08:28N 38°01' E 023°32'0 0.0
2018-May-21 07:58N 38°01' E 023°32'0 0.0
2018-May-21 07:28N 38°01' E 023°32'0 0.0
2018-May-21 06:58N 38°01' E 023°32'0 0.0
2018-May-21 06:28N 38°01' E 023°32'0 0.0
2018-May-21 05:58N 38°01' E 023°32'0 0.0
2018-May-21 05:28N 38°01' E 023°32'0 0.0
2018-May-21 04:58N 38°01' E 023°32'0 0.0
2018-May-21 04:28N 38°01' E 023°32'0 0.0
2018-May-21 03:58N 38°01' E 023°32'0 0.0
2018-May-21 03:28N 38°01' E 023°32'0 0.0
2018-May-21 02:58N 38°01' E 023°32'0 0.0
2018-May-21 02:28N 38°01' E 023°32'0 0.0
2018-May-21 01:58N 38°01' E 023°32'0 0.0
2018-May-21 01:28N 38°01' E 023°32'0 0.0
2018-May-21 00:58N 38°01' E 023°32'0 0.0
2018-May-21 00:28N 38°01' E 023°32'0 0.0
2018-May-20 23:58N 38°01' E 023°32'0 0.0
2018-May-20 23:28N 38°01' E 023°32'0 0.0
2018-May-20 22:58N 38°01' E 023°32'0 0.0
2018-May-20 22:28N 38°01' E 023°32'0 0.0
2018-May-20 21:58N 38°01' E 023°32'0 0.0
2018-May-20 21:28N 38°01' E 023°32'0 0.0
2018-May-20 20:58N 38°01' E 023°32'0 0.1
2018-May-20 20:28N 38°01' E 023°32'0 0.0
2018-May-20 19:58N 38°01' E 023°32'0 0.0
2018-May-20 19:28N 38°01' E 023°32'0 0.0
2018-May-20 18:58N 38°01' E 023°32'0 0.0
2018-May-20 18:28N 38°01' E 023°32'0 0.0
2018-May-20 17:58N 38°01' E 023°32'0 0.0
2018-May-20 17:28N 38°01' E 023°32'0 0.0
2018-May-20 16:58N 38°01' E 023°32'0 0.1
2018-May-20 16:28N 38°01' E 023°32'0 0.1
2018-May-20 15:58N 38°01' E 023°32'0 0.1
2018-May-20 15:28N 38°01' E 023°32'0 0.2
2018-May-20 14:58N 38°01' E 023°32'0 0.0
2018-May-20 14:28N 38°01' E 023°32'0 0.2
2018-May-20 13:58N 38°01' E 023°32'0 0.0
2018-May-20 13:28N 38°01' E 023°32'0 0.0
2018-May-20 12:58N 38°01' E 023°32'0 0.0
2018-May-20 12:28N 38°01' E 023°32'0 0.0
2018-May-20 11:58N 38°01' E 023°32'0 0.0
2018-May-20 11:28N 38°01' E 023°32'0 0.0
2018-May-20 10:58N 38°01' E 023°32'0 0.0
2018-May-20 10:28N 38°01' E 023°32'0 0.0
2018-May-20 09:58N 38°01' E 023°32'0 0.0
2018-May-20 09:28N 38°01' E 023°32'0 0.1
2018-May-20 08:58N 38°01' E 023°32'0 0.0
2018-May-20 08:28N 38°01' E 023°32'0 0.0
2018-May-20 07:58N 38°01' E 023°32'0 0.0
2018-May-20 07:28N 38°01' E 023°32'0 0.0
2018-May-20 06:58N 38°01' E 023°32'0 0.1
2018-May-20 06:28N 38°01' E 023°32'0 0.1
2018-May-20 05:58N 38°01' E 023°32'0 0.0
2018-May-20 05:28N 38°01' E 023°32'0 0.1
2018-May-20 04:58N 38°01' E 023°32'0 0.0
2018-May-20 04:28N 38°01' E 023°32'0 0.0
2018-May-20 03:58N 38°01' E 023°32'0 0.1
2018-May-20 03:28N 38°01' E 023°32'0 0.1
2018-May-20 02:58N 38°01' E 023°32'0 0.0
2018-May-20 02:28N 38°01' E 023°32'0 0.0
2018-May-20 01:58N 38°01' E 023°32'0 0.1
2018-May-20 01:28N 38°01' E 023°32'0 0.0
2018-May-20 00:58N 38°01' E 023°32'0 0.0
2018-May-20 00:28N 38°01' E 023°32'0 0.0
2018-May-19 23:58N 38°01' E 023°32'0 0.0
2018-May-19 23:28N 38°01' E 023°32'0 0.0
2018-May-19 22:58N 38°01' E 023°32'0 0.1
2018-May-19 22:28N 38°01' E 023°32'0 0.1
2018-May-19 21:58N 38°01' E 023°32'0 0.1
2018-May-19 21:28N 38°01' E 023°32'0 0.1
2018-May-19 20:58N 38°01' E 023°32'0 0.0
2018-May-19 20:28N 38°01' E 023°32'0 0.0
2018-May-19 19:58N 38°01' E 023°32'0 0.0
2018-May-19 19:28N 38°01' E 023°32'0 0.0
2018-May-19 18:58N 38°01' E 023°32'0 0.1
2018-May-19 18:28N 38°01' E 023°32'0 0.0
2018-May-19 17:58N 38°01' E 023°32'0 0.0
2018-May-19 17:28N 38°01' E 023°32'0 0.0
2018-May-19 16:58N 38°01' E 023°32'0 0.0
2018-May-19 16:28N 38°01' E 023°32'0 0.0
2018-May-19 15:58N 38°01' E 023°32'0 0.0
2018-May-19 15:28N 38°01' E 023°32'0 0.0
2018-May-19 14:58N 38°01' E 023°32'0 0.0
2018-May-19 14:28N 38°01' E 023°32'0 0.0
2018-May-19 13:58N 38°01' E 023°32'0 0.0
2018-May-19 13:28N 38°01' E 023°32'0 0.0
2018-May-19 12:58N 38°01' E 023°32'0 0.0
2018-May-19 12:28N 38°01' E 023°32'0 0.0
2018-May-19 11:58N 38°01' E 023°32'0 0.0
2018-May-19 11:28N 38°01' E 023°32'0 0.0
2018-May-19 10:58N 38°01' E 023°32'0 0.0
2018-May-19 10:28N 38°01' E 023°32'0 0.0
2018-May-19 09:58N 38°01' E 023°32'0 0.0
2018-May-19 09:28N 38°01' E 023°32'0 0.0
2018-May-19 08:58N 38°01' E 023°32'0 0.0
2018-May-19 08:28N 38°01' E 023°32'0 0.0
2018-May-19 07:58N 38°01' E 023°32'0 0.1
2018-May-19 07:28N 38°01' E 023°32'0 0.0
2018-May-19 06:58N 38°01' E 023°32'0 0.0
2018-May-19 06:28N 38°01' E 023°32'0 0.0
2018-May-19 05:58N 38°01' E 023°32'0 0.0
2018-May-19 05:28N 38°01' E 023°32'0 0.0
2018-May-19 04:58N 38°01' E 023°32'0 0.0
2018-May-19 04:28N 38°01' E 023°32'0 0.0
2018-May-19 03:58N 38°01' E 023°32'0 0.0
2018-May-19 03:28N 38°01' E 023°32'0 0.0
2018-May-19 02:58N 38°01' E 023°32'0 0.0
2018-May-19 02:28N 38°01' E 023°32'0 0.0
2018-May-19 01:58N 38°01' E 023°32'0 0.1
2018-May-19 01:28N 38°01' E 023°32'0 0.0
2018-May-19 00:58N 38°01' E 023°32'0 0.0
2018-May-19 00:28N 38°01' E 023°32'0 0.1
2018-May-18 23:58N 38°01' E 023°32'0 0.1
2018-May-18 23:28N 38°01' E 023°32'0 0.0
2018-May-18 22:58N 38°01' E 023°32'0 0.0
2018-May-18 22:28N 38°01' E 023°32'0 0.0
2018-May-18 21:58N 38°01' E 023°32'0 0.0
2018-May-18 21:28N 38°01' E 023°32'0 0.0
2018-May-18 20:58N 38°01' E 023°32'0 0.0
2018-May-18 20:28N 38°01' E 023°32'0 0.0
2018-May-18 19:58N 38°01' E 023°32'0 0.1
2018-May-18 19:28N 38°01' E 023°32'0 0.0
2018-May-18 18:58N 38°01' E 023°32'0 0.1
2018-May-18 18:28N 38°01' E 023°32'0 0.0
2018-May-18 17:58N 38°01' E 023°32'0 0.1
2018-May-18 17:28N 38°01' E 023°32'0 0.0
2018-May-18 16:58N 38°01' E 023°32'0 0.0
2018-May-18 16:28N 38°01' E 023°32'0 0.0
2018-May-18 15:58N 38°01' E 023°32'0 0.0
2018-May-18 15:28N 38°01' E 023°32'0 0.0
2018-May-18 14:58N 38°01' E 023°32'0 0.0
2018-May-18 14:28N 38°01' E 023°32'0 0.0
2018-May-18 13:58N 38°01' E 023°32'0 0.0
2018-May-18 13:28N 38°01' E 023°32'0 0.0
2018-May-18 12:55N 38°01' E 023°32'0 0.1
2018-May-18 12:28N 38°01' E 023°32'0 0.1
2018-May-18 11:58N 38°01' E 023°32'0 0.0
2018-May-18 11:28N 38°01' E 023°32'0 0.1
2018-May-18 10:58N 38°01' E 023°32'0 0.0
2018-May-18 10:28N 38°01' E 023°32'0 0.0
2018-May-18 09:58N 38°01' E 023°32'0 0.0
2018-May-18 09:28N 38°01' E 023°32'0 0.1
2018-May-18 08:58N 38°01' E 023°32'0 0.1
2018-May-18 08:28N 38°01' E 023°32'0 0.0
2018-May-18 07:58N 38°01' E 023°32'0 0.0
2018-May-18 07:28N 38°01' E 023°32'0 0.1
2018-May-18 06:58N 38°01' E 023°32'0 0.1
2018-May-18 06:28N 38°01' E 023°32'0 0.0
2018-May-18 05:58N 38°01' E 023°32'0 0.2
2018-May-18 05:28N 38°01' E 023°32'0 0.2
2018-May-18 04:58N 38°01' E 023°32'0 0.1
2018-May-18 04:28N 38°01' E 023°32'0 0.2
2018-May-18 03:58N 38°01' E 023°32'0 0.0
2018-May-18 03:28N 38°01' E 023°32'0 0.0
2018-May-18 02:58N 38°01' E 023°32'0 0.0
2018-May-18 02:28N 38°01' E 023°32'0 0.0
2018-May-18 01:58N 38°01' E 023°32'0 0.0
2018-May-18 01:28N 38°01' E 023°32'0 0.0
2018-May-18 00:58N 38°01' E 023°32'0 0.1
2018-May-18 00:28N 38°01' E 023°32'0 0.0
2018-May-17 23:58N 38°01' E 023°32'0 0.1
2018-May-17 23:28N 38°01' E 023°32'0 0.0
2018-May-17 22:58N 38°01' E 023°32'0 0.0
2018-May-17 22:28N 38°01' E 023°32'0 0.0
2018-May-17 21:58N 38°01' E 023°32'0 0.0
2018-May-17 21:28N 38°01' E 023°32'0 0.0
2018-May-17 20:58N 38°01' E 023°32'0 0.0
2018-May-17 20:28N 38°01' E 023°32'0 0.0
2018-May-17 19:58N 38°01' E 023°32'0 0.1
2018-May-17 19:28N 38°01' E 023°32'0 0.1
2018-May-17 18:58N 38°01' E 023°32'0 0.1
2018-May-17 18:28N 38°01' E 023°32'0 0.0
2018-May-17 17:58N 38°01' E 023°32'0 0.0
2018-May-17 17:28N 38°01' E 023°32'0 0.1
2018-May-17 16:58N 38°01' E 023°32'0 0.0
2018-May-17 16:28N 38°01' E 023°32'0 0.1
2018-May-17 15:58N 38°01' E 023°32'0 0.0
2018-May-17 15:28N 38°01' E 023°32'0 0.0
2018-May-17 14:58N 38°01' E 023°32'0 0.0
2018-May-17 14:25N 38°01' E 023°32'0 0.0
2018-May-17 13:58N 38°01' E 023°32'0 0.0
2018-May-17 13:28N 38°01' E 023°32'0 0.0
2018-May-17 12:58N 38°01' E 023°32'0 0.0
2018-May-17 12:28N 38°01' E 023°32'0 0.0
2018-May-17 11:58N 38°01' E 023°32'0 0.0
2018-May-17 11:28N 38°01' E 023°32'0 0.0
2018-May-17 10:58N 38°01' E 023°32'0 0.1
2018-May-17 10:28N 38°01' E 023°32'0 0.0
2018-May-17 09:58N 38°01' E 023°32'0 0.0
2018-May-17 09:28N 38°01' E 023°32'0 0.0
2018-May-17 08:58N 38°01' E 023°32'0 0.0
2018-May-17 08:28N 38°01' E 023°32'0 0.0
2018-May-17 07:58N 38°01' E 023°32'0 0.0
2018-May-17 07:28N 38°01' E 023°32'0 0.0
2018-May-17 06:58N 38°01' E 023°32'0 0.0
2018-May-17 06:28N 38°01' E 023°32'0 0.0
2018-May-17 05:58N 38°01' E 023°32'0 0.1
2018-May-17 05:28N 38°01' E 023°32'0 0.0
2018-May-17 04:58N 38°01' E 023°32'0 0.1
2018-May-17 04:28N 38°01' E 023°32'0 0.1
2018-May-17 03:58N 38°01' E 023°32'0 0.0
2018-May-17 03:28N 38°01' E 023°32'0 0.0
2018-May-17 02:58N 38°01' E 023°32'0 0.0
2018-May-17 02:28N 38°01' E 023°32'0 0.1
2018-May-17 01:58N 38°01' E 023°32'0 0.1
2018-May-17 01:28N 38°01' E 023°32'0 0.0
2018-May-17 00:58N 38°01' E 023°32'0 0.1
2018-May-17 00:28N 38°01' E 023°32'0 0.0
2018-May-16 23:58N 38°01' E 023°32'0 0.0
2018-May-16 23:28N 38°01' E 023°32'0 0.0
2018-May-16 22:59N 38°01' E 023°32'0 0.0
2018-May-16 22:28N 38°01' E 023°32'0 0.0
2018-May-16 21:58N 38°01' E 023°32'0 0.0
2018-May-16 21:28N 38°01' E 023°32'0 0.1
2018-May-16 20:58N 38°01' E 023°32'0 0.1
2018-May-16 20:28N 38°01' E 023°32'0 0.1
2018-May-16 19:58N 38°01' E 023°32'0 0.0
2018-May-16 19:28N 38°01' E 023°32'0 0.0
2018-May-16 18:58N 38°01' E 023°32'0 0.0
2018-May-16 18:28N 38°01' E 023°32'0 0.0
2018-May-16 17:58N 38°01' E 023°32'0 0.0
2018-May-16 17:28N 38°01' E 023°32'0 0.0
2018-May-16 16:58N 38°01' E 023°32'0 0.0
2018-May-16 16:28N 38°01' E 023°32'0 0.0
2018-May-16 15:58N 38°01' E 023°32'0 0.0
2018-May-16 15:28N 38°01' E 023°32'0 0.0
2018-May-16 14:58N 38°01' E 023°32'0 0.0
2018-May-16 14:28N 38°01' E 023°32'0 0.0
2018-May-16 13:58N 38°01' E 023°32'0 0.0
2018-May-16 13:28N 38°01' E 023°32'0 0.0
2018-May-16 12:58N 38°01' E 023°32'0 0.0
2018-May-16 12:28N 38°01' E 023°32'0 0.0
2018-May-16 11:58N 38°01' E 023°32'0 0.0
2018-May-16 11:28N 38°01' E 023°32'0 0.0
2018-May-16 10:58N 38°01' E 023°32'0 0.0
2018-May-16 10:28N 38°01' E 023°32'0 0.0
2018-May-16 09:58N 38°01' E 023°32'0 0.0
2018-May-16 09:28N 38°01' E 023°32'0 0.0
2018-May-16 08:58N 38°01' E 023°32'0 0.0
2018-May-16 08:28N 38°01' E 023°32'0 0.0
2018-May-16 07:58N 38°01' E 023°32'0 0.0
2018-May-16 07:28N 38°01' E 023°32'0 0.0
2018-May-16 06:52N 38°01' E 023°32'0 0.0
2018-May-16 06:28N 38°01' E 023°32'0 0.0
2018-May-16 05:58N 38°01' E 023°32'0 0.0
2018-May-16 05:28N 38°01' E 023°32'0 0.1
2018-May-16 04:58N 38°01' E 023°32'0 0.0
2018-May-16 04:28N 38°01' E 023°32'0 0.0
2018-May-16 03:58N 38°01' E 023°32'0 0.0
2018-May-16 03:28N 38°01' E 023°32'0 0.0
2018-May-16 02:58N 38°01' E 023°32'0 0.0
2018-May-16 02:28N 38°01' E 023°32'0 0.0
2018-May-16 01:58N 38°01' E 023°32'0 0.0
2018-May-16 01:28N 38°01' E 023°32'0 0.1
2018-May-16 00:58N 38°01' E 023°32'0 0.1
2018-May-16 00:28N 38°01' E 023°32'0 0.1
2018-May-15 23:58N 38°01' E 023°32'0 0.1
2018-May-15 23:28N 38°01' E 023°32'0 0.0
2018-May-15 22:58N 38°01' E 023°32'0 0.0
2018-May-15 22:28N 38°01' E 023°32'0 0.1
2018-May-15 21:58N 38°01' E 023°32'0 0.1
2018-May-15 21:28N 38°01' E 023°32'0 0.0
2018-May-15 20:58N 38°01' E 023°32'0 0.0
2018-May-15 20:28N 38°01' E 023°32'0 0.0
2018-May-15 19:58N 38°01' E 023°32'0 0.0
2018-May-15 19:28N 38°01' E 023°32'0 0.0
2018-May-15 18:58N 38°01' E 023°32'0 0.0
2018-May-15 18:28N 38°01' E 023°32'0 0.0
2018-May-15 17:58N 38°01' E 023°32'0 0.0
2018-May-15 17:28N 38°01' E 023°32'0 0.0
2018-May-15 16:58N 38°01' E 023°32'0 0.0
2018-May-15 16:28N 38°01' E 023°32'0 0.1
2018-May-15 15:58N 38°01' E 023°32'0 0.0
2018-May-15 15:28N 38°01' E 023°32'0 0.0
2018-May-15 14:58N 38°01' E 023°32'0 0.0
2018-May-15 14:28N 38°01' E 023°32'0 0.0
2018-May-15 13:58N 38°01' E 023°32'0 0.0
2018-May-15 13:28N 38°01' E 023°32'0 0.0
2018-May-15 12:58N 38°01' E 023°32'0 0.0
2018-May-15 12:28N 38°01' E 023°32'0 0.0
2018-May-15 11:58N 38°01' E 023°32'0 0.0
2018-May-15 11:28N 38°01' E 023°32'0 0.0
2018-May-15 10:58N 38°01' E 023°32'0 0.0
2018-May-15 10:28N 38°01' E 023°32'0 0.0
2018-May-15 09:58N 38°01' E 023°32'0 0.0
2018-May-15 09:28N 38°01' E 023°32'0 0.0
2018-May-15 08:58N 38°01' E 023°32'0 0.0
2018-May-15 08:28N 38°01' E 023°32'0 0.0
2018-May-15 07:58N 38°01' E 023°32'0 0.1
2018-May-15 07:28N 38°01' E 023°32'0 0.0
2018-May-15 06:58N 38°01' E 023°32'0 0.1
2018-May-15 06:28N 38°01' E 023°32'0 0.0
2018-May-15 05:58N 38°01' E 023°32'0 0.0
2018-May-15 05:28N 38°01' E 023°32'0 0.0
2018-May-15 04:58N 38°01' E 023°32'0 0.0
2018-May-15 04:28N 38°01' E 023°32'0 0.0
2018-May-15 03:58N 38°01' E 023°32'0 0.0
2018-May-15 03:28N 38°01' E 023°32'0 0.0
2018-May-15 02:58N 38°01' E 023°32'0 0.0
2018-May-15 02:28N 38°01' E 023°32'0 0.0
2018-May-15 01:58N 38°01' E 023°32'0 0.0
2018-May-15 01:28N 38°01' E 023°32'0 0.0
2018-May-15 00:58N 38°01' E 023°32'0 0.0
2018-May-15 00:28N 38°01' E 023°32'0 0.0
2018-May-14 23:58N 38°01' E 023°32'0 0.0
2018-May-14 23:28N 38°01' E 023°32'0 0.0
2018-May-14 22:58N 38°01' E 023°32'0 0.1
2018-May-14 22:28N 38°01' E 023°32'0 0.1
2018-May-14 21:58N 38°01' E 023°32'0 0.0
2018-May-14 21:28N 38°01' E 023°32'0 0.1
2018-May-14 20:58N 38°01' E 023°32'0 0.0
2018-May-14 20:28N 38°01' E 023°32'0 0.0
2018-May-14 19:58N 38°01' E 023°32'0 0.0
2018-May-14 19:28N 38°01' E 023°32'0 0.0
2018-May-14 18:58N 38°01' E 023°32'0 0.0
2018-May-14 18:28N 38°01' E 023°32'0 0.0
2018-May-14 17:58N 38°01' E 023°32'0 0.1
2018-May-14 17:28N 38°01' E 023°32'0 0.0
2018-May-14 16:58N 38°01' E 023°32'0 0.1
2018-May-14 16:28N 38°01' E 023°32'0 0.0
2018-May-14 15:58N 38°01' E 023°32'0 0.0
2018-May-14 15:28N 38°01' E 023°32'0 0.0
2018-May-14 14:58N 38°01' E 023°32'0 0.0
2018-May-14 14:28N 38°01' E 023°32'0 0.0
2018-May-14 13:58N 38°01' E 023°32'0 0.0
2018-May-14 13:25N 38°01' E 023°32'0 0.0
2018-May-14 12:58N 38°01' E 023°32'0 0.1
2018-May-14 12:28N 38°01' E 023°32'0 0.0
2018-May-14 11:55N 38°01' E 023°32'0 0.0
2018-May-14 11:28N 38°01' E 023°32'0 0.0
2018-May-14 10:58N 38°01' E 023°32'0 0.0
2018-May-14 10:28N 38°01' E 023°32'0 0.0
2018-May-14 09:58N 38°01' E 023°32'0 0.0
2018-May-14 09:28N 38°01' E 023°32'0 0.0
2018-May-14 08:58N 38°01' E 023°32'0 0.0
2018-May-14 08:28N 38°01' E 023°32'0 0.0
2018-May-14 07:58N 38°01' E 023°32'0 0.0
2018-May-14 07:28N 38°01' E 023°32'0 0.0
2018-May-14 06:58N 38°01' E 023°32'0 0.2
2018-May-14 06:28N 38°01' E 023°32'0 0.1
2018-May-14 05:58N 38°01' E 023°32'0 0.0
2018-May-14 05:22N 38°01' E 023°32'0 0.1
2018-May-14 04:58N 38°01' E 023°32'0 0.0
2018-May-14 04:28N 38°01' E 023°32'0 0.0
2018-May-14 03:58N 38°01' E 023°32'0 0.0
2018-May-14 03:28N 38°01' E 023°32'0 0.0
2018-May-14 02:58N 38°01' E 023°32'0 0.0
2018-May-14 02:28N 38°01' E 023°32'0 0.0
2018-May-14 01:58N 38°01' E 023°32'0 0.0
2018-May-14 01:28N 38°01' E 023°32'0 0.0
2018-May-14 00:58N 38°01' E 023°32'0 0.0
2018-May-14 00:28N 38°01' E 023°32'0 0.0
2018-May-13 23:58N 38°01' E 023°32'0 0.0
2018-May-13 23:28N 38°01' E 023°32'0 0.0
2018-May-13 22:58N 38°01' E 023°32'0 0.0
2018-May-13 22:28N 38°01' E 023°32'0 0.0
2018-May-13 21:58N 38°01' E 023°32'0 0.0
2018-May-13 21:28N 38°01' E 023°32'0 0.0
2018-May-13 20:58N 38°01' E 023°32'0 0.0
2018-May-13 20:28N 38°01' E 023°32'0 0.1
2018-May-13 19:58N 38°01' E 023°32'0 0.0
2018-May-13 19:28N 38°01' E 023°32'0 0.0
2018-May-13 18:58N 38°01' E 023°32'0 0.0
2018-May-13 18:28N 38°01' E 023°32'0 0.0
2018-May-13 17:58N 38°01' E 023°32'0 0.0
2018-May-13 17:28N 38°01' E 023°32'0 0.0
2018-May-13 16:58N 38°01' E 023°32'0 0.0
2018-May-13 16:28N 38°01' E 023°32'0 0.0
2018-May-13 15:58N 38°01' E 023°32'0 0.0
2018-May-13 15:28N 38°01' E 023°32'0 0.0
2018-May-13 14:58N 38°01' E 023°32'0 0.0
2018-May-13 14:28N 38°01' E 023°32'0 0.0
2018-May-13 13:58N 38°01' E 023°32'0 0.0
2018-May-13 13:28N 38°01' E 023°32'0 0.0
2018-May-13 12:58N 38°01' E 023°32'0 0.0
2018-May-13 12:28N 38°01' E 023°32'0 0.0
2018-May-13 11:58N 38°01' E 023°32'0 0.0
2018-May-13 11:28N 38°01' E 023°32'0 0.0
2018-May-13 10:58N 38°01' E 023°32'0 0.0
2018-May-13 10:28N 38°01' E 023°32'0 0.0
2018-May-13 09:58N 38°01' E 023°32'0 0.0
2018-May-13 09:28N 38°01' E 023°32'0 0.0
2018-May-13 08:58N 38°01' E 023°32'0 0.1
2018-May-13 08:28N 38°01' E 023°32'0 0.0
2018-May-13 07:58N 38°01' E 023°32'0 0.1
2018-May-13 07:28N 38°01' E 023°32'0 0.0
2018-May-13 06:58N 38°01' E 023°32'0 0.1
2018-May-13 06:28N 38°01' E 023°32'0 0.1
2018-May-13 05:58N 38°01' E 023°32'0 0.0
2018-May-13 05:28N 38°01' E 023°32'0 0.0
2018-May-13 04:58N 38°01' E 023°32'0 0.0
2018-May-13 04:28N 38°01' E 023°32'0 0.0
2018-May-13 03:58N 38°01' E 023°32'0 0.0
2018-May-13 03:28N 38°01' E 023°32'0 0.0
2018-May-13 02:58N 38°01' E 023°32'0 0.0
2018-May-13 02:28N 38°01' E 023°32'0 0.0
2018-May-13 01:58N 38°01' E 023°32'0 0.0
2018-May-13 01:28N 38°01' E 023°32'0 0.0
2018-May-13 00:58N 38°01' E 023°32'0 0.0
2018-May-13 00:28N 38°01' E 023°32'0 0.0
2018-May-12 23:58N 38°01' E 023°32'0 0.0
2018-May-12 23:28N 38°01' E 023°32'0 0.0
2018-May-12 22:58N 38°01' E 023°32'0 0.0
2018-May-12 22:28N 38°01' E 023°32'0 0.1
2018-May-12 21:58N 38°01' E 023°32'0 0.1
2018-May-12 21:28N 38°01' E 023°32'0 0.0
2018-May-12 20:58N 38°01' E 023°32'0 0.0
2018-May-12 20:28N 38°01' E 023°32'0 0.1
2018-May-12 19:58N 38°01' E 023°32'0 0.0
2018-May-12 19:28N 38°01' E 023°32'0 0.1
2018-May-12 18:58N 38°01' E 023°32'0 0.0
2018-May-12 18:28N 38°01' E 023°32'0 0.0
2018-May-12 17:58N 38°01' E 023°32'0 0.0
2018-May-12 17:28N 38°01' E 023°32'0 0.0
2018-May-12 16:58N 38°01' E 023°32'0 0.0
2018-May-12 16:28N 38°01' E 023°32'0 0.0
2018-May-12 15:58N 38°01' E 023°32'0 0.0
2018-May-12 15:28N 38°01' E 023°32'0 0.0
2018-May-12 14:58N 38°01' E 023°32'0 0.0
2018-May-12 14:28N 38°01' E 023°32'0 0.0
2018-May-12 13:58N 38°01' E 023°32'0 0.0
2018-May-12 13:28N 38°01' E 023°32'0 0.0
2018-May-12 12:58N 38°01' E 023°32'0 0.0
2018-May-12 12:28N 38°01' E 023°32'0 0.0
2018-May-12 11:58N 38°01' E 023°32'0 0.1
2018-May-12 11:28N 38°01' E 023°32'  

Dump ship's entire track history